sensor_id;sensor_type;location;lat;lon;timestamp;P1;durP1;ratioP1;P2;durP2;ratioP2
44046;SDS011;29713;-33.888;151.150;2023-04-01T00:01:57;2.38;;;0.98;;
44046;SDS011;29713;-33.888;151.150;2023-04-01T00:04:24;3.55;;;1.00;;
44046;SDS011;29713;-33.888;151.150;2023-04-01T00:06:51;4.15;;;0.80;;
44046;SDS011;29713;-33.888;151.150;2023-04-01T00:09:19;1.50;;;0.75;;
44046;SDS011;29713;-33.888;151.150;2023-04-01T00:11:46;1.20;;;0.80;;
44046;SDS011;29713;-33.888;151.150;2023-04-01T00:14:14;1.98;;;0.90;;
44046;SDS011;29713;-33.888;151.150;2023-04-01T00:16:41;3.22;;;1.00;;
44046;SDS011;29713;-33.888;151.150;2023-04-01T00:19:08;2.90;;;0.80;;
44046;SDS011;29713;-33.888;151.150;2023-04-01T00:21:36;1.63;;;0.82;;
44046;SDS011;29713;-33.888;151.150;2023-04-01T00:24:03;2.75;;;0.90;;
44046;SDS011;29713;-33.888;151.150;2023-04-01T00:26:31;3.30;;;0.82;;
44046;SDS011;29713;-33.888;151.150;2023-04-01T00:28:58;3.85;;;1.02;;
44046;SDS011;29713;-33.888;151.150;2023-04-01T00:31:26;3.78;;;1.10;;
44046;SDS011;29713;-33.888;151.150;2023-04-01T00:33:54;5.78;;;1.17;;
44046;SDS011;29713;-33.888;151.150;2023-04-01T00:36:22;2.75;;;0.90;;
44046;SDS011;29713;-33.888;151.150;2023-04-01T00:38:49;2.95;;;1.00;;
44046;SDS011;29713;-33.888;151.150;2023-04-01T00:41:18;3.70;;;1.33;;
44046;SDS011;29713;-33.888;151.150;2023-04-01T00:43:47;3.15;;;0.93;;
44046;SDS011;29713;-33.888;151.150;2023-04-01T00:46:16;1.92;;;0.90;;
44046;SDS011;29713;-33.888;151.150;2023-04-01T00:48:48;4.07;;;1.13;;
44046;SDS011;29713;-33.888;151.150;2023-04-01T00:51:20;4.68;;;0.90;;
44046;SDS011;29713;-33.888;151.150;2023-04-01T00:53:55;4.95;;;1.55;;
44046;SDS011;29713;-33.888;151.150;2023-04-01T00:56:45;5.07;;;1.10;;
44046;SDS011;29713;-33.888;151.150;2023-04-01T00:59:37;7.30;;;1.70;;
44046;SDS011;29713;-33.888;151.150;2023-04-01T01:02:05;5.90;;;1.30;;
44046;SDS011;29713;-33.888;151.150;2023-04-01T01:04:36;3.10;;;1.35;;
44046;SDS011;29713;-33.888;151.150;2023-04-01T01:15:20;4.13;;;1.48;;
44046;SDS011;29713;-33.888;151.150;2023-04-01T01:18:09;3.15;;;1.35;;
44046;SDS011;29713;-33.888;151.150;2023-04-01T01:26:42;6.93;;;1.55;;
44046;SDS011;29713;-33.888;151.150;2023-04-01T01:37:30;4.60;;;1.40;;
44046;SDS011;29713;-33.888;151.150;2023-04-01T01:40:00;6.38;;;1.40;;
44046;SDS011;29713;-33.888;151.150;2023-04-01T01:42:31;4.03;;;1.30;;
44046;SDS011;29713;-33.888;151.150;2023-04-01T01:45:01;6.40;;;1.33;;
44046;SDS011;29713;-33.888;151.150;2023-04-01T01:47:30;3.47;;;1.10;;
44046;SDS011;29713;-33.888;151.150;2023-04-01T01:49:59;6.70;;;1.50;;
44046;SDS011;29713;-33.888;151.150;2023-04-01T01:52:28;4.68;;;1.50;;
44046;SDS011;29713;-33.888;151.150;2023-04-01T01:54:57;5.75;;;1.58;;
44046;SDS011;29713;-33.888;151.150;2023-04-01T01:57:28;5.57;;;1.77;;
44046;SDS011;29713;-33.888;151.150;2023-04-01T02:00:10;4.47;;;1.48;;
44046;SDS011;29713;-33.888;151.150;2023-04-01T02:02:42;5.72;;;1.85;;
44046;SDS011;29713;-33.888;151.150;2023-04-01T02:05:14;8.93;;;1.73;;
44046;SDS011;29713;-33.888;151.150;2023-04-01T02:07:46;7.07;;;1.70;;
44046;SDS011;29713;-33.888;151.150;2023-04-01T02:10:22;8.73;;;2.00;;
44046;SDS011;29713;-33.888;151.150;2023-04-01T02:12:53;7.00;;;1.60;;
44046;SDS011;29713;-33.888;151.150;2023-04-01T02:15:28;5.65;;;1.70;;
44046;SDS011;29713;-33.888;151.150;2023-04-01T02:18:00;4.93;;;1.35;;
44046;SDS011;29713;-33.888;151.150;2023-04-01T02:20:29;4.25;;;1.17;;
44046;SDS011;29713;-33.888;151.150;2023-04-01T02:22:57;6.90;;;1.42;;
44046;SDS011;29713;-33.888;151.150;2023-04-01T02:25:29;5.90;;;1.75;;
44046;SDS011;29713;-33.888;151.150;2023-04-01T02:28:00;5.93;;;1.42;;
44046;SDS011;29713;-33.888;151.150;2023-04-01T02:30:32;5.78;;;2.03;;
44046;SDS011;29713;-33.888;151.150;2023-04-01T02:33:02;8.30;;;2.58;;
44046;SDS011;29713;-33.888;151.150;2023-04-01T02:35:32;8.27;;;2.15;;
44046;SDS011;29713;-33.888;151.150;2023-04-01T02:38:02;6.05;;;1.70;;
44046;SDS011;29713;-33.888;151.150;2023-04-01T02:40:40;6.40;;;1.60;;
44046;SDS011;29713;-33.888;151.150;2023-04-01T02:43:12;8.77;;;1.73;;
44046;SDS011;29713;-33.888;151.150;2023-04-01T02:45:39;6.47;;;1.77;;
44046;SDS011;29713;-33.888;151.150;2023-04-01T02:48:09;7.05;;;1.95;;
44046;SDS011;29713;-33.888;151.150;2023-04-01T02:50:46;7.72;;;1.90;;
44046;SDS011;29713;-33.888;151.150;2023-04-01T02:53:19;5.85;;;1.58;;
44046;SDS011;29713;-33.888;151.150;2023-04-01T02:55:46;5.00;;;1.30;;
44046;SDS011;29713;-33.888;151.150;2023-04-01T02:58:17;10.65;;;2.10;;
44046;SDS011;29713;-33.888;151.150;2023-04-01T03:00:45;5.47;;;1.70;;
44046;SDS011;29713;-33.888;151.150;2023-04-01T03:03:12;6.28;;;1.90;;
44046;SDS011;29713;-33.888;151.150;2023-04-01T03:05:40;9.25;;;1.90;;
44046;SDS011;29713;-33.888;151.150;2023-04-01T03:08:07;7.45;;;1.60;;
44046;SDS011;29713;-33.888;151.150;2023-04-01T03:10:35;8.65;;;1.67;;
44046;SDS011;29713;-33.888;151.150;2023-04-01T03:13:03;5.28;;;1.70;;
44046;SDS011;29713;-33.888;151.150;2023-04-01T03:15:30;8.55;;;2.20;;
44046;SDS011;29713;-33.888;151.150;2023-04-01T03:17:57;9.35;;;1.90;;
44046;SDS011;29713;-33.888;151.150;2023-04-01T03:20:25;7.40;;;1.42;;
44046;SDS011;29713;-33.888;151.150;2023-04-01T03:22:52;7.72;;;1.63;;
44046;SDS011;29713;-33.888;151.150;2023-04-01T03:25:22;9.60;;;1.77;;
44046;SDS011;29713;-33.888;151.150;2023-04-01T03:27:50;8.88;;;1.80;;
44046;SDS011;29713;-33.888;151.150;2023-04-01T03:30:17;5.18;;;1.40;;
44046;SDS011;29713;-33.888;151.150;2023-04-01T03:32:45;7.25;;;1.70;;
44046;SDS011;29713;-33.888;151.150;2023-04-01T03:35:12;6.97;;;1.75;;
44046;SDS011;29713;-33.888;151.150;2023-04-01T03:37:39;12.52;;;1.83;;
44046;SDS011;29713;-33.888;151.150;2023-04-01T03:40:07;7.75;;;1.80;;
44046;SDS011;29713;-33.888;151.150;2023-04-01T03:42:35;9.43;;;2.08;;
44046;SDS011;29713;-33.888;151.150;2023-04-01T03:45:03;7.45;;;2.38;;
44046;SDS011;29713;-33.888;151.150;2023-04-01T03:47:31;6.03;;;1.70;;
44046;SDS011;29713;-33.888;151.150;2023-04-01T03:49:58;8.52;;;1.75;;
44046;SDS011;29713;-33.888;151.150;2023-04-01T03:52:26;8.50;;;1.88;;
44046;SDS011;29713;-33.888;151.150;2023-04-01T03:54:53;9.98;;;2.08;;
44046;SDS011;29713;-33.888;151.150;2023-04-01T03:57:21;5.13;;;1.63;;
44046;SDS011;29713;-33.888;151.150;2023-04-01T03:59:48;5.72;;;1.60;;
44046;SDS011;29713;-33.888;151.150;2023-04-01T04:02:16;4.55;;;1.38;;
44046;SDS011;29713;-33.888;151.150;2023-04-01T04:04:44;8.25;;;1.90;;
44046;SDS011;29713;-33.888;151.150;2023-04-01T04:07:12;7.55;;;2.70;;
44046;SDS011;29713;-33.888;151.150;2023-04-01T04:09:39;5.97;;;1.90;;
44046;SDS011;29713;-33.888;151.150;2023-04-01T04:12:06;9.45;;;2.65;;
44046;SDS011;29713;-33.888;151.150;2023-04-01T04:14:37;8.07;;;2.17;;
44046;SDS011;29713;-33.888;151.150;2023-04-01T04:17:04;9.93;;;2.88;;
44046;SDS011;29713;-33.888;151.150;2023-04-01T04:19:32;8.43;;;2.65;;
44046;SDS011;29713;-33.888;151.150;2023-04-01T04:22:02;5.90;;;1.88;;
44046;SDS011;29713;-33.888;151.150;2023-04-01T04:24:29;8.50;;;2.45;;
44046;SDS011;29713;-33.888;151.150;2023-04-01T04:26:57;5.57;;;1.75;;
44046;SDS011;29713;-33.888;151.150;2023-04-01T04:29:24;4.72;;;1.30;;
44046;SDS011;29713;-33.888;151.150;2023-04-01T04:31:51;8.55;;;2.50;;
44046;SDS011;29713;-33.888;151.150;2023-04-01T04:34:18;8.48;;;2.08;;
44046;SDS011;29713;-33.888;151.150;2023-04-01T04:36:48;5.72;;;1.83;;
44046;SDS011;29713;-33.888;151.150;2023-04-01T04:39:15;6.40;;;1.70;;
44046;SDS011;29713;-33.888;151.150;2023-04-01T04:41:43;6.10;;;1.60;;
44046;SDS011;29713;-33.888;151.150;2023-04-01T04:44:13;7.20;;;2.13;;
44046;SDS011;29713;-33.888;151.150;2023-04-01T04:46:40;11.73;;;2.45;;
44046;SDS011;29713;-33.888;151.150;2023-04-01T04:49:08;10.52;;;2.50;;
44046;SDS011;29713;-33.888;151.150;2023-04-01T04:51:35;12.57;;;2.72;;
44046;SDS011;29713;-33.888;151.150;2023-04-01T04:54:03;9.98;;;2.10;;
44046;SDS011;29713;-33.888;151.150;2023-04-01T04:56:32;11.50;;;2.90;;
44046;SDS011;29713;-33.888;151.150;2023-04-01T04:58:59;7.55;;;2.22;;
44046;SDS011;29713;-33.888;151.150;2023-04-01T05:01:26;7.97;;;2.17;;
44046;SDS011;29713;-33.888;151.150;2023-04-01T05:03:54;9.98;;;2.25;;
44046;SDS011;29713;-33.888;151.150;2023-04-01T05:06:21;8.05;;;1.70;;
44046;SDS011;29713;-33.888;151.150;2023-04-01T05:08:49;14.05;;;2.80;;
44046;SDS011;29713;-33.888;151.150;2023-04-01T05:11:19;10.95;;;2.50;;
44046;SDS011;29713;-33.888;151.150;2023-04-01T05:13:47;10.48;;;2.92;;
44046;SDS011;29713;-33.888;151.150;2023-04-01T05:16:16;9.95;;;3.08;;
44046;SDS011;29713;-33.888;151.150;2023-04-01T05:18:45;7.32;;;2.00;;
44046;SDS011;29713;-33.888;151.150;2023-04-01T05:21:14;8.93;;;1.85;;
44046;SDS011;29713;-33.888;151.150;2023-04-01T05:23:41;12.75;;;2.95;;
44046;SDS011;29713;-33.888;151.150;2023-04-01T05:26:10;8.95;;;1.98;;
44046;SDS011;29713;-33.888;151.150;2023-04-01T05:28:42;5.53;;;1.60;;
44046;SDS011;29713;-33.888;151.150;2023-04-01T05:31:10;3.63;;;1.40;;
44046;SDS011;29713;-33.888;151.150;2023-04-01T05:33:37;6.93;;;1.63;;
44046;SDS011;29713;-33.888;151.150;2023-04-01T05:36:06;5.07;;;1.27;;
44046;SDS011;29713;-33.888;151.150;2023-04-01T05:38:34;7.93;;;1.75;;
44046;SDS011;29713;-33.888;151.150;2023-04-01T05:41:02;5.20;;;1.52;;
44046;SDS011;29713;-33.888;151.150;2023-04-01T05:43:30;5.10;;;1.20;;
44046;SDS011;29713;-33.888;151.150;2023-04-01T05:45:57;3.22;;;1.33;;
44046;SDS011;29713;-33.888;151.150;2023-04-01T05:48:25;8.25;;;1.50;;
44046;SDS011;29713;-33.888;151.150;2023-04-01T05:50:52;3.08;;;1.13;;
44046;SDS011;29713;-33.888;151.150;2023-04-01T05:53:19;4.80;;;1.10;;
44046;SDS011;29713;-33.888;151.150;2023-04-01T05:55:47;4.95;;;1.60;;
44046;SDS011;29713;-33.888;151.150;2023-04-01T05:58:15;2.92;;;1.20;;
44046;SDS011;29713;-33.888;151.150;2023-04-01T06:00:42;4.07;;;1.23;;
44046;SDS011;29713;-33.888;151.150;2023-04-01T06:03:10;4.60;;;1.15;;
44046;SDS011;29713;-33.888;151.150;2023-04-01T06:05:41;4.57;;;1.08;;
44046;SDS011;29713;-33.888;151.150;2023-04-01T06:08:11;4.22;;;1.30;;
44046;SDS011;29713;-33.888;151.150;2023-04-01T06:10:48;5.88;;;1.27;;
44046;SDS011;29713;-33.888;151.150;2023-04-01T06:26:50;4.20;;;1.50;;
44046;SDS011;29713;-33.888;151.150;2023-04-01T06:29:38;7.93;;;1.48;;
44046;SDS011;29713;-33.888;151.150;2023-04-01T06:35:46;5.85;;;1.30;;
44046;SDS011;29713;-33.888;151.150;2023-04-01T06:38:06;4.28;;;1.13;;
44046;SDS011;29713;-33.888;151.150;2023-04-01T06:41:17;4.55;;;1.10;;
44046;SDS011;29713;-33.888;151.150;2023-04-01T06:44:06;5.88;;;1.23;;
44046;SDS011;29713;-33.888;151.150;2023-04-01T06:46:45;8.30;;;1.30;;
44046;SDS011;29713;-33.888;151.150;2023-04-01T06:54:48;5.85;;;1.52;;
44046;SDS011;29713;-33.888;151.150;2023-04-01T06:57:38;4.25;;;1.20;;
44046;SDS011;29713;-33.888;151.150;2023-04-01T07:00:43;4.05;;;1.33;;
44046;SDS011;29713;-33.888;151.150;2023-04-01T07:03:13;5.55;;;1.45;;
44046;SDS011;29713;-33.888;151.150;2023-04-01T07:06:00;5.95;;;1.20;;
44046;SDS011;29713;-33.888;151.150;2023-04-01T07:08:31;3.47;;;1.25;;
44046;SDS011;29713;-33.888;151.150;2023-04-01T07:11:04;3.72;;;1.30;;
44046;SDS011;29713;-33.888;151.150;2023-04-01T07:13:45;5.68;;;1.50;;
44046;SDS011;29713;-33.888;151.150;2023-04-01T07:16:34;8.70;;;1.30;;
44046;SDS011;29713;-33.888;151.150;2023-04-01T07:22:13;3.40;;;1.40;;
44046;SDS011;29713;-33.888;151.150;2023-04-01T07:25:07;5.22;;;1.50;;
44046;SDS011;29713;-33.888;151.150;2023-04-01T07:27:46;2.95;;;1.05;;
44046;SDS011;29713;-33.888;151.150;2023-04-01T07:30:17;2.80;;;1.17;;
44046;SDS011;29713;-33.888;151.150;2023-04-01T07:35:34;4.53;;;1.42;;
44046;SDS011;29713;-33.888;151.150;2023-04-01T07:47:20;4.20;;;1.05;;
44046;SDS011;29713;-33.888;151.150;2023-04-01T07:52:58;7.50;;;1.50;;
44046;SDS011;29713;-33.888;151.150;2023-04-01T07:55:45;5.60;;;1.80;;
44046;SDS011;29713;-33.888;151.150;2023-04-01T07:58:39;4.85;;;1.55;;
44046;SDS011;29713;-33.888;151.150;2023-04-01T08:07:13;6.20;;;1.88;;
44046;SDS011;29713;-33.888;151.150;2023-04-01T08:10:02;8.63;;;1.20;;
44046;SDS011;29713;-33.888;151.150;2023-04-01T08:19:15;4.43;;;1.08;;
44046;SDS011;29713;-33.888;151.150;2023-04-01T08:21:51;6.60;;;1.23;;
44046;SDS011;29713;-33.888;151.150;2023-04-01T08:27:14;2.78;;;1.20;;
44046;SDS011;29713;-33.888;151.150;2023-04-01T08:32:37;3.42;;;1.45;;
44046;SDS011;29713;-33.888;151.150;2023-04-01T08:35:09;4.10;;;1.10;;
44046;SDS011;29713;-33.888;151.150;2023-04-01T08:37:51;9.50;;;1.52;;
44046;SDS011;29713;-33.888;151.150;2023-04-01T08:43:42;4.60;;;1.20;;
44046;SDS011;29713;-33.888;151.150;2023-04-01T08:52:21;3.50;;;1.05;;
44046;SDS011;29713;-33.888;151.150;2023-04-01T08:57:37;5.72;;;1.30;;
44046;SDS011;29713;-33.888;151.150;2023-04-01T09:03:29;5.38;;;1.48;;
44046;SDS011;29713;-33.888;151.150;2023-04-01T09:12:31;3.33;;;1.30;;
44046;SDS011;29713;-33.888;151.150;2023-04-01T09:20:52;4.15;;;1.10;;
44046;SDS011;29713;-33.888;151.150;2023-04-01T09:32:10;3.47;;;1.17;;
44046;SDS011;29713;-33.888;151.150;2023-04-01T09:35:10;4.43;;;1.08;;
44046;SDS011;29713;-33.888;151.150;2023-04-01T09:52:09;6.03;;;1.55;;
44046;SDS011;29713;-33.888;151.150;2023-04-01T09:57:56;6.53;;;1.40;;
44046;SDS011;29713;-33.888;151.150;2023-04-01T10:05:51;4.35;;;1.40;;
44046;SDS011;29713;-33.888;151.150;2023-04-01T10:08:47;4.25;;;1.50;;
44046;SDS011;29713;-33.888;151.150;2023-04-01T10:23:17;4.68;;;1.70;;
44046;SDS011;29713;-33.888;151.150;2023-04-01T10:34:16;5.35;;;1.77;;
44046;SDS011;29713;-33.888;151.150;2023-04-01T10:45:38;7.13;;;1.80;;
44046;SDS011;29713;-33.888;151.150;2023-04-01T10:57:30;5.78;;;1.52;;
44046;SDS011;29713;-33.888;151.150;2023-04-01T11:05:26;4.70;;;1.45;;
44046;SDS011;29713;-33.888;151.150;2023-04-01T11:08:07;6.15;;;1.50;;
44046;SDS011;29713;-33.888;151.150;2023-04-01T11:30:58;3.70;;;1.27;;
44046;SDS011;29713;-33.888;151.150;2023-04-01T11:34:02;7.32;;;1.55;;
44046;SDS011;29713;-33.888;151.150;2023-04-01T11:36:50;5.35;;;1.30;;
44046;SDS011;29713;-33.888;151.150;2023-04-01T11:42:33;5.55;;;1.50;;
44046;SDS011;29713;-33.888;151.150;2023-04-01T12:13:02;3.60;;;0.90;;
44046;SDS011;29713;-33.888;151.150;2023-04-01T12:18:25;3.38;;;1.42;;
44046;SDS011;29713;-33.888;151.150;2023-04-01T12:23:50;4.53;;;1.50;;
44046;SDS011;29713;-33.888;151.150;2023-04-01T12:38:18;2.60;;;1.02;;
44046;SDS011;29713;-33.888;151.150;2023-04-01T13:17:34;3.28;;;1.45;;
44046;SDS011;29713;-33.888;151.150;2023-04-01T13:37:11;3.70;;;1.30;;
44046;SDS011;29713;-33.888;151.150;2023-04-01T13:42:59;3.60;;;1.10;;
44046;SDS011;29713;-33.888;151.150;2023-04-01T13:57:03;4.90;;;1.00;;
44046;SDS011;29713;-33.888;151.150;2023-04-01T14:08:23;6.25;;;1.70;;
44046;SDS011;29713;-33.888;151.150;2023-04-01T14:11:06;5.57;;;1.30;;
44046;SDS011;29713;-33.888;151.150;2023-04-01T14:19:40;4.43;;;0.93;;
44046;SDS011;29713;-33.888;151.150;2023-04-01T14:22:32;7.10;;;1.48;;
44046;SDS011;29713;-33.888;151.150;2023-04-01T14:28:00;3.65;;;1.17;;
44046;SDS011;29713;-33.888;151.150;2023-04-01T14:42:03;5.50;;;1.63;;
44046;SDS011;29713;-33.888;151.150;2023-04-01T14:44:48;4.03;;;1.67;;
44046;SDS011;29713;-33.888;151.150;2023-04-01T14:47:48;5.15;;;1.60;;
44046;SDS011;29713;-33.888;151.150;2023-04-01T14:50:27;6.07;;;2.20;;
44046;SDS011;29713;-33.888;151.150;2023-04-01T14:58:41;6.03;;;1.60;;
44046;SDS011;29713;-33.888;151.150;2023-04-01T15:01:32;4.63;;;1.75;;
44046;SDS011;29713;-33.888;151.150;2023-04-01T15:04:54;4.23;;;2.00;;
44046;SDS011;29713;-33.888;151.150;2023-04-01T15:07:54;4.73;;;1.97;;
44046;SDS011;29713;-33.888;151.150;2023-04-01T15:10:34;6.20;;;1.90;;
44046;SDS011;29713;-33.888;151.150;2023-04-01T15:16:06;5.10;;;1.60;;
44046;SDS011;29713;-33.888;151.150;2023-04-01T15:24:51;6.10;;;1.10;;
44046;SDS011;29713;-33.888;151.150;2023-04-01T15:30:27;8.93;;;1.50;;
44046;SDS011;29713;-33.888;151.150;2023-04-01T15:38:21;9.70;;;1.88;;
44046;SDS011;29713;-33.888;151.150;2023-04-01T15:44:01;7.47;;;1.70;;
44046;SDS011;29713;-33.888;151.150;2023-04-01T15:46:41;8.85;;;1.83;;
44046;SDS011;29713;-33.888;151.150;2023-04-01T15:57:40;13.63;;;2.10;;
44046;SDS011;29713;-33.888;151.150;2023-04-01T16:00:22;7.15;;;1.50;;
44046;SDS011;29713;-33.888;151.150;2023-04-01T16:17:05;11.65;;;1.88;;
44046;SDS011;29713;-33.888;151.150;2023-04-01T16:19:41;11.13;;;1.50;;
44046;SDS011;29713;-33.888;151.150;2023-04-01T16:22:34;6.03;;;1.20;;
44046;SDS011;29713;-33.888;151.150;2023-04-01T16:28:11;10.65;;;1.33;;
44046;SDS011;29713;-33.888;151.150;2023-04-01T16:33:28;5.93;;;1.20;;
44046;SDS011;29713;-33.888;151.150;2023-04-01T16:47:35;4.13;;;1.00;;
44046;SDS011;29713;-33.888;151.150;2023-04-01T16:50:22;12.45;;;1.23;;
44046;SDS011;29713;-33.888;151.150;2023-04-01T16:55:43;4.68;;;1.30;;
44046;SDS011;29713;-33.888;151.150;2023-04-01T16:58:26;8.03;;;1.60;;
44046;SDS011;29713;-33.888;151.150;2023-04-01T17:01:03;13.55;;;1.77;;
44046;SDS011;29713;-33.888;151.150;2023-04-01T17:03:40;4.65;;;1.30;;
44046;SDS011;29713;-33.888;151.150;2023-04-01T17:06:21;9.45;;;1.20;;
44046;SDS011;29713;-33.888;151.150;2023-04-01T17:23:36;10.88;;;1.75;;
44046;SDS011;29713;-33.888;151.150;2023-04-01T17:29:05;11.50;;;1.90;;
44046;SDS011;29713;-33.888;151.150;2023-04-01T17:42:37;14.90;;;2.20;;
44046;SDS011;29713;-33.888;151.150;2023-04-01T17:48:00;11.50;;;2.03;;
44046;SDS011;29713;-33.888;151.150;2023-04-01T17:50:51;9.35;;;1.85;;
44046;SDS011;29713;-33.888;151.150;2023-04-01T17:59:29;10.88;;;2.13;;
44046;SDS011;29713;-33.888;151.150;2023-04-01T18:02:03;9.38;;;1.75;;
44046;SDS011;29713;-33.888;151.150;2023-04-01T18:10:04;10.90;;;1.98;;
44046;SDS011;29713;-33.888;151.150;2023-04-01T18:15:39;6.55;;;1.52;;
44046;SDS011;29713;-33.888;151.150;2023-04-01T18:23:24;5.50;;;1.00;;
44046;SDS011;29713;-33.888;151.150;2023-04-01T18:26:04;12.10;;;1.92;;
44046;SDS011;29713;-33.888;151.150;2023-04-01T18:28:43;9.38;;;1.85;;
44046;SDS011;29713;-33.888;151.150;2023-04-01T18:31:20;8.82;;;1.30;;
44046;SDS011;29713;-33.888;151.150;2023-04-01T18:34:07;6.25;;;1.00;;
44046;SDS011;29713;-33.888;151.150;2023-04-01T18:36:50;11.05;;;1.80;;
44046;SDS011;29713;-33.888;151.150;2023-04-01T18:43:01;10.00;;;1.65;;
44046;SDS011;29713;-33.888;151.150;2023-04-01T18:45:57;8.70;;;1.38;;
44046;SDS011;29713;-33.888;151.150;2023-04-01T18:56:37;5.95;;;1.63;;
44046;SDS011;29713;-33.888;151.150;2023-04-01T18:59:56;6.15;;;1.50;;
44046;SDS011;29713;-33.888;151.150;2023-04-01T19:02:02;8.70;;;1.58;;
44046;SDS011;29713;-33.888;151.150;2023-04-01T19:04:43;9.27;;;1.85;;
44046;SDS011;29713;-33.888;151.150;2023-04-01T19:10:00;13.27;;;2.00;;
44046;SDS011;29713;-33.888;151.150;2023-04-01T19:12:58;12.15;;;2.35;;
44046;SDS011;29713;-33.888;151.150;2023-04-01T19:18:43;7.22;;;1.40;;
44046;SDS011;29713;-33.888;151.150;2023-04-01T19:21:18;7.43;;;1.90;;
44046;SDS011;29713;-33.888;151.150;2023-04-01T19:24:03;11.10;;;2.20;;
44046;SDS011;29713;-33.888;151.150;2023-04-01T19:26:42;6.70;;;1.65;;
44046;SDS011;29713;-33.888;151.150;2023-04-01T19:32:39;7.90;;;2.15;;
44046;SDS011;29713;-33.888;151.150;2023-04-01T19:37:58;9.35;;;2.00;;
44046;SDS011;29713;-33.888;151.150;2023-04-01T19:40:35;10.40;;;2.67;;
44046;SDS011;29713;-33.888;151.150;2023-04-01T19:49:14;15.90;;;2.28;;
44046;SDS011;29713;-33.888;151.150;2023-04-01T19:54:38;10.13;;;2.28;;
44046;SDS011;29713;-33.888;151.150;2023-04-01T20:00:22;11.20;;;2.20;;
44046;SDS011;29713;-33.888;151.150;2023-04-01T20:11:01;8.07;;;1.42;;
44046;SDS011;29713;-33.888;151.150;2023-04-01T20:14:26;12.50;;;2.35;;
44046;SDS011;29713;-33.888;151.150;2023-04-01T20:17:01;11.20;;;1.98;;
44046;SDS011;29713;-33.888;151.150;2023-04-01T20:19:43;12.23;;;2.72;;
44046;SDS011;29713;-33.888;151.150;2023-04-01T20:25:04;18.42;;;3.13;;
44046;SDS011;29713;-33.888;151.150;2023-04-01T20:27:56;7.45;;;1.52;;
44046;SDS011;29713;-33.888;151.150;2023-04-01T20:30:28;5.88;;;1.60;;
44046;SDS011;29713;-33.888;151.150;2023-04-01T20:45:13;7.13;;;2.13;;
44046;SDS011;29713;-33.888;151.150;2023-04-01T20:47:30;11.63;;;2.43;;
44046;SDS011;29713;-33.888;151.150;2023-04-01T20:50:29;17.58;;;3.22;;
44046;SDS011;29713;-33.888;151.150;2023-04-01T21:06:56;7.43;;;1.70;;
44046;SDS011;29713;-33.888;151.150;2023-04-01T21:15:26;7.00;;;1.50;;
44046;SDS011;29713;-33.888;151.150;2023-04-01T21:18:38;13.30;;;1.80;;
44046;SDS011;29713;-33.888;151.150;2023-04-01T21:21:47;21.88;;;2.30;;
44046;SDS011;29713;-33.888;151.150;2023-04-01T21:30:32;2.97;;;1.17;;
44046;SDS011;29713;-33.888;151.150;2023-04-01T21:36:18;4.50;;;1.27;;
44046;SDS011;29713;-33.888;151.150;2023-04-01T21:39:03;4.72;;;1.30;;
44046;SDS011;29713;-33.888;151.150;2023-04-01T22:02:04;4.30;;;0.98;;
44046;SDS011;29713;-33.888;151.150;2023-04-01T22:07:53;3.73;;;1.13;;
44046;SDS011;29713;-33.888;151.150;2023-04-01T22:10:48;2.47;;;0.80;;
44046;SDS011;29713;-33.888;151.150;2023-04-01T22:13:41;3.97;;;1.10;;
44046;SDS011;29713;-33.888;151.150;2023-04-01T22:21:41;1.63;;;0.83;;
44046;SDS011;29713;-33.888;151.150;2023-04-01T22:27:35;2.97;;;0.80;;
44046;SDS011;29713;-33.888;151.150;2023-04-01T22:30:13;2.78;;;0.90;;
44046;SDS011;29713;-33.888;151.150;2023-04-01T22:32:59;2.28;;;1.00;;
44046;SDS011;29713;-33.888;151.150;2023-04-01T22:44:19;2.88;;;1.00;;
44046;SDS011;29713;-33.888;151.150;2023-04-01T22:47:12;1.75;;;0.90;;
44046;SDS011;29713;-33.888;151.150;2023-04-01T22:49:47;3.25;;;0.80;;
44046;SDS011;29713;-33.888;151.150;2023-04-01T22:52:36;2.42;;;0.95;;
44046;SDS011;29713;-33.888;151.150;2023-04-01T22:57:50;3.28;;;1.00;;
44046;SDS011;29713;-33.888;151.150;2023-04-01T23:00:47;3.95;;;1.00;;
44046;SDS011;29713;-33.888;151.150;2023-04-01T23:03:21;1.08;;;0.60;;
44046;SDS011;29713;-33.888;151.150;2023-04-01T23:06:00;3.17;;;1.48;;
44046;SDS011;29713;-33.888;151.150;2023-04-01T23:14:00;5.28;;;1.00;;
44046;SDS011;29713;-33.888;151.150;2023-04-01T23:16:57;3.80;;;1.02;;
44046;SDS011;29713;-33.888;151.150;2023-04-01T23:19:42;2.70;;;0.88;;
44046;SDS011;29713;-33.888;151.150;2023-04-01T23:22:21;3.45;;;1.08;;
44046;SDS011;29713;-33.888;151.150;2023-04-01T23:33:26;4.00;;;0.93;;
44046;SDS011;29713;-33.888;151.150;2023-04-01T23:35:56;2.50;;;0.80;;
44046;SDS011;29713;-33.888;151.150;2023-04-01T23:38:42;2.10;;;0.73;;
44046;SDS011;29713;-33.888;151.150;2023-04-01T23:41:46;2.25;;;0.93;;
44046;SDS011;29713;-33.888;151.150;2023-04-01T23:44:10;3.80;;;0.82;;
44046;SDS011;29713;-33.888;151.150;2023-04-01T23:46:40;6.03;;;1.02;;
44046;SDS011;29713;-33.888;151.150;2023-04-01T23:49:17;4.70;;;0.90;;
44046;SDS011;29713;-33.888;151.150;2023-04-01T23:51:55;4.35;;;1.05;;
44046;SDS011;29713;-33.888;151.150;2023-04-01T23:54:29;2.83;;;1.10;;
44046;SDS011;29713;-33.888;151.150;2023-04-01T23:56:59;5.88;;;1.40;;
44046;SDS011;29713;-33.888;151.150;2023-04-01T23:59:36;4.65;;;0.98;;
